createdAt,value
2018-10-07T00:00:34.058Z,16.70
2018-10-07T00:03:06.537Z,16.70
2018-10-07T00:05:38.998Z,16.80
2018-10-07T00:08:10.838Z,16.80
2018-10-07T00:10:42.618Z,16.80
2018-10-07T00:13:14.178Z,16.80
2018-10-07T00:15:46.598Z,16.80
2018-10-07T00:18:18.259Z,16.80
2018-10-07T00:20:50.718Z,16.70
2018-10-07T00:23:22.239Z,16.80
2018-10-07T00:25:54.559Z,16.70
2018-10-07T00:28:25.899Z,16.70
2018-10-07T00:30:58.558Z,16.70
2018-10-07T00:33:30.978Z,16.80
2018-10-07T00:36:02.758Z,16.80
2018-10-07T00:38:34.659Z,16.80
2018-10-07T00:41:06.859Z,16.80
2018-10-07T00:43:38.619Z,16.80
2018-10-07T00:46:11.188Z,16.80
2018-10-07T00:48:42.819Z,16.70
2018-10-07T00:51:15.660Z,16.70
2018-10-07T00:53:47.561Z,16.70
2018-10-07T00:56:19.800Z,16.70
2018-10-07T00:58:51.183Z,16.80
2018-10-07T01:01:23.160Z,16.80
2018-10-07T01:03:55.700Z,16.80
2018-10-07T01:06:27.561Z,16.70
2018-10-07T01:08:59.581Z,16.70
2018-10-07T01:11:31.520Z,16.70
2018-10-07T01:14:02.000Z,16.60
2018-10-07T01:16:33.599Z,16.60
2018-10-07T01:19:05.799Z,16.60
2018-10-07T01:21:38.000Z,16.60
2018-10-07T01:24:09.480Z,16.60
2018-10-07T01:26:41.059Z,16.60
2018-10-07T01:29:12.779Z,16.60
2018-10-07T01:31:44.660Z,16.60
2018-10-07T01:34:16.019Z,16.60
2018-10-07T01:36:47.419Z,16.60
2018-10-07T01:39:19.199Z,16.60
2018-10-07T01:41:51.000Z,16.60
2018-10-07T01:44:23.419Z,16.50
2018-10-07T01:46:55.462Z,16.60
2018-10-07T01:49:27.080Z,16.60
2018-10-07T01:51:59.080Z,16.60
2018-10-07T01:54:30.239Z,16.60
2018-10-07T01:57:00.960Z,16.70
2018-10-07T01:59:32.981Z,16.70
2018-10-07T02:02:05.799Z,16.70
2018-10-07T02:04:39.379Z,16.70
2018-10-07T02:07:10.919Z,16.60
2018-10-07T02:09:43.000Z,16.60
2018-10-07T02:12:15.362Z,16.60
2018-10-07T02:14:47.020Z,16.60
2018-10-07T02:17:18.862Z,16.60
2018-10-07T02:19:50.940Z,16.70
2018-10-07T02:22:22.699Z,16.70
2018-10-07T02:24:55.221Z,16.70
2018-10-07T02:27:27.480Z,16.70
2018-10-07T02:29:59.819Z,16.70
2018-10-07T02:32:32.099Z,16.70
2018-10-07T02:35:03.339Z,16.70
2018-10-07T02:37:35.929Z,16.70
2018-10-07T02:40:07.499Z,16.80
2018-10-07T02:42:39.360Z,16.80
2018-10-07T02:45:11.819Z,16.90
2018-10-07T02:47:43.019Z,16.80
2018-10-07T02:50:20.122Z,16.90
2018-10-07T02:52:53.339Z,16.90
2018-10-07T02:55:30.059Z,16.90
2018-10-07T02:58:02.099Z,16.90
2018-10-07T03:00:34.860Z,16.90
2018-10-07T03:03:06.399Z,16.90
2018-10-07T03:05:38.279Z,16.90
2018-10-07T03:08:09.460Z,16.90
2018-10-07T03:10:42.699Z,16.90
2018-10-07T03:13:14.619Z,16.80
2018-10-07T03:15:47.039Z,16.80
2018-10-07T03:18:19.199Z,16.80
2018-10-07T03:20:50.963Z,16.70
2018-10-07T03:23:23.019Z,16.80
2018-10-07T03:25:55.719Z,16.70
2018-10-07T03:28:27.201Z,16.70
2018-10-07T03:30:59.585Z,16.70
2018-10-07T03:33:31.039Z,16.70
2018-10-07T03:36:02.445Z,16.80
2018-10-07T03:38:34.382Z,16.80
2018-10-07T03:41:07.360Z,16.90
2018-10-07T03:43:39.921Z,16.80
2018-10-07T03:46:11.940Z,16.80
2018-10-07T03:48:44.029Z,16.70
2018-10-07T03:51:16.020Z,16.70
2018-10-07T03:53:48.260Z,16.70
2018-10-07T03:56:20.523Z,16.70
2018-10-07T03:58:52.703Z,16.70
2018-10-07T04:01:25.260Z,16.70
2018-10-07T04:03:57.600Z,16.70
2018-10-07T04:06:29.481Z,16.70
2018-10-07T04:09:01.079Z,16.70
2018-10-07T04:11:33.304Z,16.80
2018-10-07T04:14:05.220Z,16.80
2018-10-07T04:16:36.900Z,16.80
2018-10-07T04:19:09.699Z,16.70
2018-10-07T04:21:46.780Z,16.60
2018-10-07T04:24:19.211Z,16.60
2018-10-07T04:26:51.439Z,16.60
2018-10-07T04:29:23.659Z,16.60
2018-10-07T04:31:55.620Z,16.70
2018-10-07T04:34:27.380Z,16.70
2018-10-07T04:36:59.280Z,16.70
2018-10-07T04:39:31.519Z,16.70
2018-10-07T04:42:03.560Z,16.60
2018-10-07T04:44:34.560Z,16.60
2018-10-07T04:47:06.659Z,16.50
2018-10-07T04:49:38.540Z,16.40
2018-10-07T04:52:11.140Z,16.30
2018-10-07T04:54:43.499Z,16.30
2018-10-07T04:57:15.703Z,16.30
2018-10-07T04:59:47.860Z,16.40
2018-10-07T05:02:19.819Z,16.30
2018-10-07T05:04:51.659Z,16.30
2018-10-07T05:07:24.720Z,16.20
2018-10-07T05:10:05.240Z,16.20
2018-10-07T05:12:37.632Z,16.20
2018-10-07T05:15:10.199Z,16.30
2018-10-07T05:17:41.700Z,16.30
2018-10-07T05:20:13.800Z,16.30
2018-10-07T05:22:46.559Z,16.40
2018-10-07T05:25:18.479Z,16.40
2018-10-07T05:27:51.521Z,16.40
2018-10-07T05:30:24.100Z,16.50
2018-10-07T05:32:55.581Z,16.40
2018-10-07T05:35:27.959Z,16.30
2018-10-07T05:38:00.199Z,16.30
2018-10-07T05:40:32.680Z,16.30
2018-10-07T05:43:05.259Z,16.30
2018-10-07T05:45:37.120Z,16.30
2018-10-07T05:48:09.619Z,16.20
2018-10-07T05:50:41.119Z,16.20
2018-10-07T05:53:13.919Z,16.20
2018-10-07T05:55:46.202Z,16.30
2018-10-07T05:58:18.020Z,16.30
2018-10-07T06:00:50.340Z,16.30
2018-10-07T06:04:34.743Z,16.30
2018-10-07T06:07:07.060Z,16.40
2018-10-07T06:09:40.320Z,16.30
2018-10-07T06:12:11.679Z,16.30
2018-10-07T06:14:53.946Z,16.30
2018-10-07T06:17:25.564Z,16.30
2018-10-07T06:19:58.161Z,16.40
2018-10-07T06:22:30.562Z,16.40
2018-10-07T06:25:03.020Z,16.40
2018-10-07T06:27:35.000Z,16.40
2018-10-07T06:30:06.539Z,16.40
2018-10-07T06:32:38.359Z,16.40
2018-10-07T06:35:10.361Z,16.50
2018-10-07T06:37:43.599Z,16.50
2018-10-07T06:40:15.562Z,16.60
2018-10-07T06:42:47.160Z,16.60
2018-10-07T06:45:18.892Z,16.60
2018-10-07T06:47:51.259Z,16.70
2018-10-07T06:50:22.599Z,16.70
2018-10-07T06:52:54.959Z,16.80
2018-10-07T06:55:26.219Z,16.90
2018-10-07T06:57:58.599Z,16.90
2018-10-07T07:00:30.579Z,16.90
2018-10-07T07:03:03.580Z,17.00
2018-10-07T07:05:35.539Z,17.20
2018-10-07T07:08:07.300Z,17.30
2018-10-07T07:10:39.119Z,17.40
2018-10-07T07:13:10.799Z,17.50
2018-10-07T07:15:43.281Z,17.60
2018-10-07T07:18:15.040Z,17.70
2018-10-07T07:20:46.419Z,17.80
2018-10-07T07:23:18.881Z,17.90
2018-10-07T07:25:50.045Z,18.00
2018-10-07T07:28:22.780Z,18.10
2018-10-07T07:30:54.419Z,18.20
2018-10-07T07:33:26.504Z,18.30
2018-10-07T07:35:57.580Z,18.30
2018-10-07T07:38:30.040Z,18.30
2018-10-07T07:41:01.900Z,18.30
2018-10-07T07:43:34.219Z,18.20
2018-10-07T07:46:05.320Z,18.20
2018-10-07T07:48:37.320Z,18.20
2018-10-07T07:51:08.640Z,18.20
2018-10-07T07:53:40.860Z,18.20
2018-10-07T07:56:12.347Z,18.20
2018-10-07T07:58:44.582Z,18.20
2018-10-07T08:01:16.781Z,18.20
2018-10-07T08:03:49.560Z,18.30
2018-10-07T08:06:21.920Z,18.20
2018-10-07T08:08:53.401Z,18.20
2018-10-07T08:11:25.579Z,18.20
2018-10-07T08:13:58.460Z,18.20
2018-10-07T08:16:30.219Z,18.10
2018-10-07T08:19:02.859Z,18.20
2018-10-07T08:21:34.719Z,18.20
2018-10-07T08:24:06.860Z,18.30
2018-10-07T08:26:39.520Z,18.30
2018-10-07T08:29:11.659Z,18.40
2018-10-07T08:31:43.740Z,18.50
2018-10-07T08:34:15.459Z,18.60
2018-10-07T08:36:47.620Z,18.60
2018-10-07T08:39:20.444Z,18.70
2018-10-07T08:41:54.059Z,18.80
2018-10-07T08:44:26.779Z,18.90
2018-10-07T08:46:58.567Z,18.90
2018-10-07T08:49:31.019Z,18.90
2018-10-07T08:52:03.740Z,18.90
2018-10-07T08:54:35.000Z,18.90
2018-10-07T08:57:07.181Z,18.90
2018-10-07T08:59:39.140Z,19.00
2018-10-07T09:02:11.814Z,19.10
2018-10-07T09:04:43.921Z,19.20
2018-10-07T09:07:16.699Z,19.20
2018-10-07T09:09:49.020Z,19.30
2018-10-07T09:12:21.519Z,19.40
2018-10-07T09:14:52.942Z,19.40
2018-10-07T09:17:24.479Z,19.50
2018-10-07T09:19:56.620Z,19.60
2018-10-07T09:22:29.720Z,19.60
2018-10-07T09:25:02.127Z,19.70
2018-10-07T09:27:34.272Z,19.70
2018-10-07T09:30:06.119Z,19.80
2018-10-07T09:32:40.119Z,19.90
2018-10-07T09:35:12.980Z,19.90
2018-10-07T09:37:44.780Z,20.00
2018-10-07T09:40:17.180Z,20.10
2018-10-07T09:42:49.399Z,20.20
2018-10-07T09:45:21.140Z,20.20
2018-10-07T09:47:53.519Z,20.20
2018-10-07T09:50:25.440Z,20.30
2018-10-07T09:52:57.680Z,20.30
2018-10-07T09:55:28.799Z,20.40
2018-10-07T09:58:01.395Z,20.50
2018-10-07T10:00:37.520Z,20.50
2018-10-07T10:03:10.539Z,20.60
2018-10-07T10:05:43.060Z,20.70
2018-10-07T10:08:15.440Z,20.80
2018-10-07T10:10:48.042Z,20.90
2018-10-07T10:13:20.459Z,20.90
2018-10-07T10:15:52.559Z,21.00
2018-10-07T10:19:00.040Z,21.10
2018-10-07T10:21:44.401Z,21.20
2018-10-07T10:24:24.799Z,21.30
2018-10-07T10:28:22.879Z,21.30
2018-10-07T10:31:03.920Z,21.40
2018-10-07T10:33:39.168Z,21.50
2018-10-07T10:36:34.019Z,21.70
2018-10-07T10:39:14.699Z,21.80
2018-10-07T10:41:50.022Z,21.90
2018-10-07T10:44:30.899Z,21.90
2018-10-07T10:47:10.179Z,21.90
2018-10-07T10:49:51.779Z,21.90
2018-10-07T10:52:30.682Z,22.10
2018-10-07T10:57:13.839Z,22.20
2018-10-07T11:00:03.799Z,22.40
2018-10-07T11:02:43.200Z,22.40
2018-10-07T11:05:29.179Z,22.60
2018-10-07T11:09:09.151Z,23.00
2018-10-07T11:12:02.280Z,23.30
2018-10-07T11:16:46.420Z,23.40
2018-10-07T11:19:24.659Z,23.50
2018-10-07T11:24:43.000Z,23.60
2018-10-07T11:27:28.960Z,23.70
2018-10-07T11:30:26.280Z,23.70
2018-10-07T11:33:07.560Z,23.80
2018-10-07T11:35:53.039Z,23.80
2018-10-07T11:39:33.479Z,23.80
2018-10-07T11:42:13.961Z,23.80
2018-10-07T11:45:08.659Z,23.80
2018-10-07T11:48:16.622Z,23.70
2018-10-07T11:51:25.799Z,23.60
2018-10-07T11:54:01.423Z,23.40
2018-10-07T11:56:33.439Z,23.40
2018-10-07T11:59:05.959Z,23.50
2018-10-07T12:01:37.759Z,23.60
2018-10-07T12:04:09.982Z,23.70
2018-10-07T12:06:41.480Z,23.90
2018-10-07T12:09:13.859Z,23.90
2018-10-07T12:11:45.279Z,23.90
2018-10-07T12:14:17.320Z,24.00
2018-10-07T12:16:48.920Z,23.90
2018-10-07T12:19:21.440Z,23.80
2018-10-07T12:21:52.981Z,23.60
2018-10-07T12:24:25.420Z,23.70
2018-10-07T12:26:58.279Z,24.10
2018-10-07T12:29:30.019Z,24.60
2018-10-07T12:32:02.559Z,24.70
2018-10-07T12:34:34.780Z,24.70
2018-10-07T12:37:06.699Z,24.70
2018-10-07T12:39:39.699Z,24.70
2018-10-07T12:42:11.559Z,24.60
2018-10-07T12:44:43.681Z,24.50
2018-10-07T12:47:15.981Z,24.40
2018-10-07T12:49:48.400Z,24.30
2018-10-07T12:52:20.360Z,24.20
2018-10-07T12:54:53.079Z,24.00
2018-10-07T12:57:24.659Z,23.80
2018-10-07T12:59:57.061Z,23.60
2018-10-07T13:02:28.520Z,23.40
2018-10-07T13:05:00.859Z,23.20
2018-10-07T13:07:33.161Z,23.10
2018-10-07T13:10:05.739Z,23.10
2018-10-07T13:12:38.401Z,22.90
2018-10-07T13:15:10.600Z,22.80
2018-10-07T13:17:43.059Z,22.70
2018-10-07T13:20:16.260Z,22.70
2018-10-07T13:22:47.484Z,22.60
2018-10-07T13:25:19.162Z,22.60
2018-10-07T13:27:51.361Z,22.60
2018-10-07T13:30:23.538Z,22.50
2018-10-07T13:32:55.282Z,22.40
2018-10-07T13:35:28.019Z,22.40
2018-10-07T13:37:59.580Z,22.40
2018-10-07T13:40:32.139Z,22.40
2018-10-07T13:43:04.118Z,22.30
2018-10-07T13:45:36.178Z,22.20
2018-10-07T13:48:07.899Z,22.30
2018-10-07T13:50:39.519Z,22.20
2018-10-07T13:53:11.716Z,22.10
2018-10-07T13:55:43.699Z,22.20
2018-10-07T13:58:16.218Z,22.30
2018-10-07T14:00:47.879Z,22.20
2018-10-07T14:03:20.816Z,22.20
2018-10-07T14:05:52.700Z,22.20
2018-10-07T14:08:24.920Z,22.20
2018-10-07T14:10:56.680Z,22.20
2018-10-07T14:20:33.978Z,22.20
2018-10-07T14:23:06.061Z,21.90
2018-10-07T14:25:37.979Z,21.90
2018-10-07T14:28:09.498Z,22.00
2018-10-07T14:30:41.380Z,21.90
2018-10-07T14:33:13.119Z,21.90
2018-10-07T14:35:45.240Z,21.90
2018-10-07T14:38:17.560Z,21.90
2018-10-07T14:40:50.139Z,21.90
2018-10-07T14:43:22.700Z,21.90
2018-10-07T14:45:54.800Z,21.80
2018-10-07T14:48:26.660Z,21.80
2018-10-07T14:50:58.165Z,21.80
2018-10-07T14:53:31.300Z,21.80
2018-10-07T14:56:04.340Z,21.80
2018-10-07T14:58:36.859Z,21.80
2018-10-07T15:01:09.346Z,21.70
2018-10-07T15:03:41.780Z,21.70
2018-10-07T15:06:14.239Z,21.60
2018-10-07T15:08:46.218Z,21.60
2018-10-07T15:11:18.759Z,21.50
2018-10-07T15:13:50.859Z,21.50
2018-10-07T15:16:23.245Z,21.50
2018-10-07T15:18:55.040Z,21.50
2018-10-07T15:21:26.718Z,21.40
2018-10-07T15:23:59.680Z,21.40
2018-10-07T15:26:31.519Z,21.40
2018-10-07T15:29:04.499Z,21.30
2018-10-07T15:31:36.580Z,21.30
2018-10-07T15:34:08.159Z,21.30
2018-10-07T15:36:39.900Z,21.30
2018-10-07T15:39:12.579Z,21.30
2018-10-07T15:41:45.163Z,21.30
2018-10-07T15:44:17.639Z,21.20
2018-10-07T15:46:49.204Z,21.20
2018-10-07T15:49:22.281Z,21.20
2018-10-07T15:51:54.119Z,21.30
2018-10-07T15:54:25.999Z,21.30
2018-10-07T15:56:57.840Z,21.20
2018-10-07T15:59:30.061Z,21.30
2018-10-07T16:02:02.623Z,21.30
2018-10-07T16:04:34.722Z,21.20
2018-10-07T16:07:06.339Z,21.20
2018-10-07T16:09:38.472Z,21.20
2018-10-07T16:12:11.039Z,21.20
2018-10-07T16:14:43.719Z,21.20
2018-10-07T16:17:15.639Z,21.30
2018-10-07T16:19:49.279Z,21.30
2018-10-07T16:22:21.480Z,21.30
2018-10-07T16:24:53.283Z,21.30
2018-10-07T16:27:25.401Z,21.30
2018-10-07T16:29:58.499Z,21.30
2018-10-07T16:32:30.539Z,21.30
2018-10-07T16:35:02.425Z,21.30
2018-10-07T16:37:34.179Z,21.30
2018-10-07T16:40:06.864Z,21.30
2018-10-07T16:42:39.080Z,21.30
2018-10-07T16:45:11.027Z,21.30
2018-10-07T16:47:43.140Z,21.30
2018-10-07T16:50:15.359Z,21.30
2018-10-07T16:52:47.284Z,21.20
2018-10-07T16:55:18.880Z,21.10
2018-10-07T16:57:50.859Z,20.90
2018-10-07T17:00:23.022Z,20.90
2018-10-07T17:02:55.201Z,20.80
2018-10-07T17:05:27.560Z,20.70
2018-10-07T17:07:59.519Z,20.60
2018-10-07T17:10:31.719Z,20.60
2018-10-07T17:13:03.268Z,20.60
2018-10-07T17:15:35.159Z,20.50
2018-10-07T17:18:05.920Z,20.40
2018-10-07T17:20:38.543Z,20.30
2018-10-07T17:23:10.259Z,20.20
2018-10-07T17:25:42.828Z,20.10
2018-10-07T17:28:14.221Z,20.00
2018-10-07T17:30:46.440Z,19.90
2018-10-07T17:33:18.219Z,19.90
2018-10-07T17:35:50.220Z,19.80
2018-10-07T17:38:22.139Z,19.80
2018-10-07T17:40:54.739Z,19.80
2018-10-07T17:43:27.539Z,19.70
2018-10-07T17:46:00.358Z,19.60
2018-10-07T17:48:32.518Z,19.60
2018-10-07T17:51:04.999Z,19.50
2018-10-07T17:53:36.639Z,19.50
2018-10-07T17:56:08.459Z,19.50
2018-10-07T17:58:39.440Z,19.50
2018-10-07T18:01:12.239Z,19.50
2018-10-07T18:03:43.939Z,19.40
2018-10-07T18:06:15.959Z,19.40
2018-10-07T18:08:47.840Z,19.40
2018-10-07T18:11:20.340Z,19.40
2018-10-07T18:13:52.359Z,19.40
2018-10-07T18:16:24.339Z,19.40
2018-10-07T18:18:56.879Z,19.30
2018-10-07T18:21:28.880Z,19.20
2018-10-07T18:24:01.021Z,19.10
2018-10-07T18:26:34.560Z,19.00
2018-10-07T18:29:06.779Z,18.90
2018-10-07T18:31:39.219Z,18.90
2018-10-07T18:34:11.584Z,18.80
2018-10-07T18:36:45.099Z,18.70
2018-10-07T18:39:18.358Z,18.60
2018-10-07T18:41:51.279Z,18.70
2018-10-07T18:44:23.939Z,18.70
2018-10-07T18:46:57.839Z,18.60
2018-10-07T18:49:31.659Z,18.60
2018-10-07T18:52:05.080Z,18.60
2018-10-07T18:54:40.189Z,18.50
2018-10-07T18:57:13.579Z,18.50
2018-10-07T18:59:46.379Z,18.50
2018-10-07T19:02:19.465Z,18.50
2018-10-07T19:04:51.881Z,18.40
2018-10-07T19:07:24.140Z,18.40
2018-10-07T19:09:56.520Z,18.30
2018-10-07T19:12:27.999Z,18.30
2018-10-07T19:15:01.099Z,18.20
2018-10-07T19:17:33.661Z,18.20
2018-10-07T19:20:05.060Z,18.20
2018-10-07T19:22:38.159Z,18.20
2018-10-07T19:25:11.820Z,18.20
2018-10-07T19:27:43.719Z,18.10
2018-10-07T19:30:15.760Z,18.10
2018-10-07T19:32:47.659Z,18.00
2018-10-07T19:35:18.743Z,18.00
2018-10-07T19:37:50.939Z,18.00
2018-10-07T19:40:23.260Z,18.00
2018-10-07T19:42:55.460Z,18.00
2018-10-07T19:45:27.294Z,18.00
2018-10-07T19:47:59.559Z,18.00
2018-10-07T19:50:32.479Z,18.10
2018-10-07T19:53:04.180Z,18.10
2018-10-07T19:55:36.759Z,18.10
2018-10-07T19:58:09.619Z,18.00
2018-10-07T20:00:42.604Z,18.00
2018-10-07T20:03:14.720Z,18.00
2018-10-07T20:05:45.880Z,18.00
2018-10-07T20:08:17.688Z,17.90
2018-10-07T20:10:49.419Z,17.90
2018-10-07T20:13:21.217Z,17.90
2018-10-07T20:15:53.278Z,17.90
2018-10-07T20:18:25.099Z,17.90
2018-10-07T20:20:56.959Z,17.90
2018-10-07T20:23:28.778Z,17.90
2018-10-07T20:26:01.003Z,17.80
2018-10-07T20:28:32.779Z,17.80
2018-10-07T20:31:05.082Z,17.70
2018-10-07T20:33:37.199Z,17.60
2018-10-07T20:36:08.741Z,17.60
2018-10-07T20:38:41.019Z,17.60
2018-10-07T20:41:12.859Z,17.50
2018-10-07T20:43:45.162Z,17.60
2018-10-07T20:46:17.301Z,17.50
2018-10-07T20:48:49.439Z,17.50
2018-10-07T20:51:21.639Z,17.50
2018-10-07T20:53:53.439Z,17.50
2018-10-07T20:56:25.342Z,17.50
2018-10-07T20:58:57.119Z,17.50
2018-10-07T21:01:29.939Z,17.50
2018-10-07T21:04:02.679Z,17.60
2018-10-07T21:06:34.838Z,17.60
2018-10-07T21:09:08.941Z,17.50
2018-10-07T21:11:40.805Z,17.50
2018-10-07T21:14:13.019Z,17.50
2018-10-07T21:16:44.640Z,17.40
2018-10-07T21:19:16.359Z,17.50
2018-10-07T21:21:48.178Z,17.40
2018-10-07T21:24:20.395Z,17.40
2018-10-07T21:26:52.559Z,17.40
2018-10-07T21:29:24.299Z,17.30
2018-10-07T21:31:56.939Z,17.30
2018-10-07T21:34:28.248Z,17.20
2018-10-07T21:37:00.279Z,17.20
2018-10-07T21:39:32.319Z,17.20
2018-10-07T21:42:04.419Z,17.10
2018-10-07T21:44:35.979Z,17.10
2018-10-07T21:47:08.778Z,17.10
2018-10-07T21:49:40.630Z,17.10
2018-10-07T21:52:12.959Z,17.20
2018-10-07T21:54:45.538Z,17.10
2018-10-07T21:57:17.338Z,17.00
2018-10-07T21:59:49.979Z,17.00
2018-10-07T22:02:22.499Z,17.00
2018-10-07T22:04:54.219Z,17.00
2018-10-07T22:07:27.339Z,16.90
2018-10-07T22:09:59.099Z,16.90
2018-10-07T22:12:31.179Z,16.80
2018-10-07T22:15:03.359Z,16.80
2018-10-07T22:17:35.299Z,16.80
2018-10-07T22:20:07.971Z,16.80
2018-10-07T22:22:40.919Z,16.80
2018-10-07T22:25:12.363Z,16.80
2018-10-07T22:27:45.199Z,16.80
2018-10-07T22:30:17.363Z,16.80
2018-10-07T22:32:48.563Z,16.70
2018-10-07T22:35:20.079Z,16.70
2018-10-07T22:37:52.179Z,16.80
2018-10-07T22:40:23.499Z,16.80
2018-10-07T22:42:56.319Z,16.80
2018-10-07T22:45:27.458Z,16.80
2018-10-07T22:48:00.218Z,16.80
2018-10-07T22:50:32.518Z,16.70
2018-10-07T22:53:04.519Z,16.60
2018-10-07T22:55:36.898Z,16.60
2018-10-07T22:58:09.299Z,16.50
2018-10-07T23:00:40.778Z,16.50
2018-10-07T23:03:12.658Z,16.40
2018-10-07T23:05:44.199Z,16.40
2018-10-07T23:08:17.178Z,16.30
2018-10-07T23:10:50.319Z,16.30
2018-10-07T23:13:22.439Z,16.30
2018-10-07T23:15:54.681Z,16.30
2018-10-07T23:18:26.599Z,16.30
2018-10-07T23:20:58.639Z,16.20
2018-10-07T23:23:30.879Z,16.20
2018-10-07T23:26:03.039Z,16.10
2018-10-07T23:28:35.280Z,16.10
2018-10-07T23:31:06.439Z,16.10
2018-10-07T23:33:38.119Z,16.10
2018-10-07T23:36:09.539Z,16.10
2018-10-07T23:38:41.993Z,16.00
2018-10-07T23:41:13.858Z,16.00
2018-10-07T23:43:46.119Z,16.00
2018-10-07T23:46:17.680Z,16.00
2018-10-07T23:48:49.599Z,16.00
2018-10-07T23:51:21.799Z,16.00
2018-10-07T23:53:54.159Z,16.00
2018-10-07T23:56:27.603Z,16.00
2018-10-07T23:59:00.580Z,16.00
